Time;durP1;ratioP1;P1;durP2;ratioP2;P2;SDS_P1;SDS_P2;PMS_P1;PMS_P2;Temp;Humidity;BMP_temperature;BMP_pressure;BME280_temperature;BME280_humidity;BME280_pressure;Samples;Min_cycle;Max_cycle;Signal;HPM_P1;HPM_P2
2022/01/07 00:01:23;;;;;;;11.93;4.67;;;;;;;-1.92;85.11;101015.16;5013431;28;20061;-77
2022/01/07 00:03:48;;;;;;;10.63;4.30;;;;;;;-1.94;85.38;101021.94;5011873;28;20120;-76
2022/01/07 00:06:13;;;;;;;6.90;3.77;;;;;;;-1.91;85.70;101016.97;5012979;28;20046;-77
2022/01/07 00:08:39;;;;;;;10.87;4.17;;;;;;;-1.91;86.17;101016.03;5013079;28;20037;-77
2022/01/07 00:11:04;;;;;;;8.93;3.87;;;;;;;-1.91;86.44;101013.47;5013092;28;20065;-77
2022/01/07 00:13:30;;;;;;;12.00;3.90;;;;;;;-1.92;86.01;101015.16;5013027;28;20034;-76
2022/01/07 00:15:55;;;;;;;7.83;3.30;;;;;;;-1.93;85.96;101013.41;5012698;28;20076;-77
2022/01/07 00:18:22;;;;;;;11.50;3.40;;;;;;;-1.90;86.05;101013.53;5012790;28;20038;-77
2022/01/07 00:20:47;;;;;;;11.17;3.90;;;;;;;-1.87;85.71;101007.66;5012842;28;20493;-77
2022/01/07 00:23:12;;;;;;;9.93;3.63;;;;;;;-1.89;85.60;101009.25;5012925;28;20045;-77
2022/01/07 00:25:38;;;;;;;8.83;3.50;;;;;;;-1.93;85.27;101015.97;5012638;28;20120;-77
2022/01/07 00:28:04;;;;;;;8.17;3.60;;;;;;;-1.93;85.41;101010.81;5012869;28;20461;-77
2022/01/07 00:30:29;;;;;;;8.10;3.63;;;;;;;-1.94;86.18;101001.25;5012797;28;20026;-77
2022/01/07 00:32:55;;;;;;;7.70;3.90;;;;;;;-1.95;85.90;100998.59;5012653;28;20034;-77
2022/01/07 00:35:21;;;;;;;7.40;3.10;;;;;;;-1.99;85.26;100997.56;5012462;28;20431;-76
2022/01/07 00:37:48;;;;;;;9.67;3.50;;;;;;;-2.00;85.44;100998.34;5012554;28;20076;-77
2022/01/07 00:40:17;;;;;;;8.60;3.43;;;;;;;-2.03;85.28;101000.78;5012604;28;20030;-77
2022/01/07 00:42:43;;;;;;;9.10;3.83;;;;;;;-2.08;85.42;101003.13;5012484;28;20069;-77
2022/01/07 00:45:09;;;;;;;10.67;3.73;;;;;;;-2.11;85.28;101002.09;5012201;28;20041;-76
2022/01/07 00:47:34;;;;;;;8.77;3.90;;;;;;;-2.17;85.82;100999.16;5012439;28;20045;-76
2022/01/07 00:49:59;;;;;;;9.17;3.80;;;;;;;-2.22;85.24;100996.38;5008415;28;20042;-77
2022/01/07 00:52:25;;;;;;;8.03;3.30;;;;;;;-2.26;85.18;100994.41;5011141;28;20436;-77
2022/01/07 00:54:50;;;;;;;7.57;3.57;;;;;;;-2.28;85.46;100993.44;5011989;28;20056;-76
2022/01/07 00:57:16;;;;;;;7.13;3.10;;;;;;;-2.28;86.40;100988.25;5012023;28;20116;-77
2022/01/07 00:59:44;;;;;;;12.03;3.70;;;;;;;-2.24;85.82;100988.50;5012246;28;20408;-77
2022/01/07 01:02:10;;;;;;;8.17;3.67;;;;;;;-2.23;86.04;100992.91;5012258;28;20606;-77
2022/01/07 01:04:35;;;;;;;12.40;4.43;;;;;;;-2.22;85.88;100997.25;5012013;28;20104;-77
2022/01/07 01:07:01;;;;;;;8.00;3.87;;;;;;;-2.23;85.56;101000.66;5011564;28;20481;-77
2022/01/07 01:09:26;;;;;;;7.57;3.60;;;;;;;-2.31;84.98;101001.91;5011902;28;20041;-77
2022/01/07 01:11:51;;;;;;;7.53;3.23;;;;;;;-2.33;86.08;100994.88;5012098;28;20037;-77
2022/01/07 01:14:17;;;;;;;8.03;3.63;;;;;;;-2.30;86.30;100995.97;5011634;28;20065;-76
2022/01/07 01:16:44;;;;;;;13.77;3.97;;;;;;;-2.25;86.33;100994.50;5011737;28;20109;-77
2022/01/07 01:19:10;;;;;;;8.10;3.40;;;;;;;-2.15;86.10;100982.03;5008405;28;20431;-77
2022/01/07 01:21:36;;;;;;;8.47;3.63;;;;;;;-2.12;85.84;100984.78;5011616;28;20113;-76
2022/01/07 01:24:02;;;;;;;8.93;4.30;;;;;;;-2.15;85.34;100982.03;5011323;28;20034;-77
2022/01/07 01:26:27;;;;;;;9.40;3.17;;;;;;;-2.22;85.12;100979.16;5011794;28;20049;-76
2022/01/07 01:28:52;;;;;;;7.70;3.27;;;;;;;-2.24;86.02;100980.75;5010594;28;20029;-77
2022/01/07 01:31:18;;;;;;;8.27;3.50;;;;;;;-2.28;85.26;100983.09;5011848;28;20544;-77
2022/01/07 01:33:44;;;;;;;7.33;3.40;;;;;;;-2.36;85.45;100980.09;5011589;28;20050;-77
2022/01/07 01:36:10;;;;;;;9.57;3.00;;;;;;;-2.41;84.71;100986.75;5011550;28;20038;-77
2022/01/07 01:38:37;;;;;;;9.80;2.83;;;;;;;-2.50;85.69;100978.50;5011651;28;20400;-77
2022/01/07 01:41:03;;;;;;;13.03;4.03;;;;;;;-2.52;86.20;100973.22;5010702;28;20029;-77
2022/01/07 01:43:29;;;;;;;7.17;3.00;;;;;;;-2.55;85.71;100977.34;5010350;28;20536;-77
2022/01/07 01:45:54;;;;;;;8.10;3.90;;;;;;;-2.59;85.61;100977.97;5011316;28;20030;-77
2022/01/07 01:48:20;;;;;;;6.47;3.03;;;;;;;-2.59;86.43;100967.66;5011555;28;20587;-77
2022/01/07 01:50:47;;;;;;;7.87;3.00;;;;;;;-2.55;86.31;100972.19;5007749;28;20045;-77
2022/01/07 01:53:13;;;;;;;6.33;3.00;;;;;;;-2.56;86.40;100971.31;5018606;28;20046;-77
2022/01/07 01:55:39;;;;;;;9.80;3.30;;;;;;;-2.55;85.70;100969.59;5010051;28;20030;-77
2022/01/07 01:58:05;;;;;;;9.80;3.17;;;;;;;-2.56;85.69;100966.13;5011509;28;20577;-77
2022/01/07 02:00:31;;;;;;;7.73;2.77;;;;;;;-2.57;85.63;100968.63;5011754;28;20042;-77
2022/01/07 02:02:56;;;;;;;6.60;2.77;;;;;;;-2.61;85.70;100969.28;5011159;28;20084;-77
2022/01/07 02:05:22;;;;;;;8.37;2.50;;;;;;;-2.61;85.98;100956.38;5011123;28;20041;-76
2022/01/07 02:07:48;;;;;;;9.80;3.27;;;;;;;-2.59;86.51;100967.66;5011378;28;20037;-76
2022/01/07 02:10:15;;;;;;;6.83;2.77;;;;;;;-2.54;86.11;100968.78;5011304;28;20030;-76
2022/01/07 02:12:41;;;;;;;5.43;2.50;;;;;;;-2.54;86.46;100969.69;5018346;28;20192;-77
2022/01/07 02:15:09;;;;;;;6.80;2.60;;;;;;;-2.54;87.02;100967.13;5010913;28;20440;-77
2022/01/07 02:17:34;;;;;;;5.00;2.10;;;;;;;-2.51;86.03;100954.34;5011263;28;20117;-76
2022/01/07 02:19:59;;;;;;;5.07;2.50;;;;;;;-2.45;86.98;100952.06;5012785;28;20137;-77
2022/01/07 02:22:25;;;;;;;7.47;2.43;;;;;;;-2.39;86.24;100953.22;5015255;28;20042;-77
2022/01/07 02:24:52;;;;;;;6.97;2.00;;;;;;;-2.33;86.63;100956.09;5014891;28;20044;-76
2022/01/07 02:27:18;;;;;;;5.23;2.10;;;;;;;-2.28;86.08;100957.22;5015176;28;20037;-77
2022/01/07 02:29:48;;;;;;;6.17;1.83;;;;;;;-2.26;85.84;100946.16;5016418;28;20391;-75
2022/01/07 02:32:14;;;;;;;6.93;2.33;;;;;;;-2.22;85.65;100942.06;5014936;28;20403;-77
2022/01/07 02:34:40;;;;;;;6.90;1.97;;;;;;;-2.20;85.84;100945.63;5014783;28;20061;-77
2022/01/07 02:37:05;;;;;;;8.57;1.80;;;;;;;-2.22;85.40;100934.31;5015069;28;20033;-77
2022/01/07 02:39:30;;;;;;;5.67;1.97;;;;;;;-2.17;85.75;100934.53;5015036;28;20488;-77
2022/01/07 02:41:56;;;;;;;5.23;2.00;;;;;;;-2.15;85.54;100938.06;5015023;28;20083;-77
2022/01/07 02:44:21;;;;;;;5.40;2.10;;;;;;;-2.15;84.67;100927.72;5015017;28;20061;-77
2022/01/07 02:46:47;;;;;;;5.83;2.10;;;;;;;-2.17;84.45;100932.84;5014441;28;20496;-77
2022/01/07 02:49:15;;;;;;;10.63;2.43;;;;;;;-2.22;84.93;100927.44;5015856;28;20030;-76
2022/01/07 02:51:41;;;;;;;6.03;2.10;;;;;;;-2.28;84.52;100924.53;5014813;28;20044;-76
2022/01/07 02:54:07;;;;;;;6.37;2.40;;;;;;;-2.33;84.92;100920.81;5014527;28;20120;-76
2022/01/07 02:56:33;;;;;;;7.83;2.10;;;;;;;-2.37;84.65;100925.75;5014504;28;20489;-76
2022/01/07 02:58:59;;;;;;;6.73;2.60;;;;;;;-2.41;84.55;100919.53;5014482;28;20045;-76
2022/01/07 03:01:24;;;;;;;6.97;2.30;;;;;;;-2.45;85.03;100907.25;5014055;28;20205;-77
2022/01/07 03:03:49;;;;;;;6.37;2.20;;;;;;;-2.44;85.28;100909.03;5014533;28;20116;-77
2022/01/07 03:06:15;;;;;;;6.47;1.83;;;;;;;-2.47;84.92;100914.03;5014283;28;20044;-76
2022/01/07 03:08:40;;;;;;;6.77;1.80;;;;;;;-2.51;85.17;100901.78;5021850;28;20087;-77
2022/01/07 03:11:06;;;;;;;6.53;1.97;;;;;;;-2.52;84.56;100899.97;5013942;28;20044;-77
2022/01/07 03:13:31;;;;;;;10.87;2.60;;;;;;;-2.54;84.99;100905.09;5014443;28;20037;-77
2022/01/07 03:15:56;;;;;;;6.93;2.43;;;;;;;-2.53;84.74;100908.56;5014035;28;20404;-77
2022/01/07 03:18:21;;;;;;;6.47;2.10;;;;;;;-2.55;84.47;100898.13;5014377;28;20385;-76
2022/01/07 03:20:47;;;;;;;9.33;2.70;;;;;;;-2.55;84.46;100894.66;5014438;28;20037;-76
2022/01/07 03:23:13;;;;;;;5.87;2.37;;;;;;;-2.57;84.90;100907.50;5014375;28;20095;-76
2022/01/07 03:25:43;;;;;;;6.23;1.93;;;;;;;-2.59;84.77;100906.53;5012189;28;20068;-77
2022/01/07 03:28:10;;;;;;;6.47;2.20;;;;;;;-2.62;84.73;100884.81;5014184;28;20163;-77
2022/01/07 03:30:36;;;;;;;7.30;2.10;;;;;;;-2.62;85.44;100887.38;5013170;28;20156;-76
2022/01/07 03:33:01;;;;;;;4.33;1.67;;;;;;;-2.61;84.84;100873.69;5014044;28;20125;-76
2022/01/07 03:35:26;;;;;;;9.83;1.77;;;;;;;-2.61;84.39;100865.94;5013853;28;20038;-77
2022/01/07 03:37:52;;;;;;;6.33;1.90;;;;;;;-2.65;84.50;100863.19;5012826;28;20045;-77
2022/01/07 03:40:19;;;;;;;7.83;1.67;;;;;;;-2.58;85.04;100858.31;5013639;28;20037;-77
2022/01/07 03:42:45;;;;;;;7.70;2.13;;;;;;;-2.57;84.23;100860.09;5013411;28;20412;-77
2022/01/07 03:45:11;;;;;;;7.40;2.17;;;;;;;-2.54;84.34;100855.06;5013457;28;20030;-77
2022/01/07 03:47:37;;;;;;;5.10;1.67;;;;;;;-2.50;84.30;100857.03;5012754;28;20463;-77
2022/01/07 03:50:08;;;;;;;5.87;1.80;;;;;;;-2.44;84.70;100852.16;5013618;28;20041;-77
2022/01/07 03:52:35;;;;;;;8.07;1.73;;;;;;;-2.43;84.54;100844.50;5014025;28;20034;-76
2022/01/07 03:55:02;;;;;;;6.67;1.60;;;;;;;-2.36;85.14;100843.09;5014008;28;20045;-77
2022/01/07 03:57:27;;;;;;;6.70;2.00;;;;;;;-2.30;84.11;100834.78;5013060;28;20053;-76
2022/01/07 03:59:53;;;;;;;6.57;1.60;;;;;;;-2.28;84.56;100830.56;5014158;28;20045;-78
2022/01/07 04:02:19;;;;;;;6.77;1.50;;;;;;;-2.24;83.68;100835.97;5014107;28;20057;-78
2022/01/07 04:04:45;;;;;;;5.00;1.67;;;;;;;-2.21;83.76;100838.69;5013327;28;20550;-76
2022/01/07 04:07:10;;;;;;;4.23;1.47;;;;;;;-2.18;84.17;100843.13;5013243;28;20080;-76
2022/01/07 04:09:36;;;;;;;3.40;1.60;;;;;;;-2.14;84.06;100844.19;5013358;28;20438;-77
2022/01/07 04:12:01;;;;;;;7.97;2.03;;;;;;;-2.14;83.63;100847.66;5013112;28;20430;-76
2022/01/07 04:14:27;;;;;;;5.90;1.83;;;;;;;-2.12;83.57;100847.72;5012698;28;20038;-77
2022/01/07 04:16:53;;;;;;;6.50;2.37;;;;;;;-2.09;83.15;100845.31;5013243;28;20044;-77
2022/01/07 04:19:18;;;;;;;6.23;1.93;;;;;;;-2.08;82.97;100847.06;5013097;28;20129;-76
2022/01/07 04:21:46;;;;;;;5.87;2.03;;;;;;;-2.06;83.21;100835.13;5013385;28;20476;-77
2022/01/07 04:24:11;;;;;;;8.57;1.70;;;;;;;-2.06;83.19;100836.00;5013268;28;20062;-77
2022/01/07 04:26:37;;;;;;;6.23;1.80;;;;;;;-2.05;83.23;100832.59;5013028;28;20080;-76
2022/01/07 04:29:02;;;;;;;5.07;1.63;;;;;;;-2.02;83.18;100835.34;5011705;28;20041;-76
2022/01/07 04:31:27;;;;;;;4.90;1.37;;;;;;;-1.96;83.15;100832.16;5013102;28;20057;-77
2022/01/07 04:33:53;;;;;;;8.10;1.90;;;;;;;-1.94;82.70;100819.28;5011285;28;20034;-77
2022/01/07 04:36:18;;;;;;;5.83;2.20;;;;;;;-1.88;83.14;100819.63;5011569;28;20037;-77
2022/01/07 04:38:44;;;;;;;5.00;1.67;;;;;;;-1.78;82.86;100821.84;5009634;28;20038;-77
2022/01/07 04:41:10;;;;;;;4.40;1.20;;;;;;;-1.68;82.70;100812.78;5012756;28;20507;-77
2022/01/07 04:43:35;;;;;;;7.50;1.37;;;;;;;-1.63;81.93;100811.31;5012764;28;20034;-77
2022/01/07 04:46:01;;;;;;;3.10;1.13;;;;;;;-1.59;82.00;100802.88;5012749;28;20083;-76
2022/01/07 04:48:26;;;;;;;5.37;1.43;;;;;;;-1.60;81.99;100795.91;5012427;28;20132;-77
2022/01/07 04:50:51;;;;;;;5.53;1.50;;;;;;;-1.59;81.68;100802.88;5012143;28;20068;-76
2022/01/07 04:53:17;;;;;;;6.03;1.53;;;;;;;-1.51;81.76;100801.53;5012259;28;20033;-75
2022/01/07 04:55:44;;;;;;;11.90;4.33;;;;;;;-1.45;81.44;100801.81;5011425;28;20132;-76
2022/01/07 04:58:11;;;;;;;6.30;2.10;;;;;;;-1.43;81.78;100797.59;5010614;28;20029;-75
2022/01/07 05:00:38;;;;;;;7.30;1.73;;;;;;;-1.39;81.37;100802.13;5011139;28;20025;-77
2022/01/07 05:03:04;;;;;;;7.43;2.00;;;;;;;-1.37;81.43;100795.28;5012309;28;20046;-77
2022/01/07 05:05:29;;;;;;;5.13;1.70;;;;;;;-1.32;81.12;100798.97;4996911;28;20057;-76
2022/01/07 05:07:55;;;;;;;7.10;1.60;;;;;;;-1.23;81.15;100798.53;5012314;28;20030;-77
2022/01/07 05:10:20;;;;;;;5.83;2.10;;;;;;;-1.18;80.71;100793.53;5012313;28;20431;-77
2022/01/07 05:12:46;;;;;;;7.30;2.20;;;;;;;-1.13;81.15;100799.81;5012077;28;20473;-77
2022/01/07 05:15:13;;;;;;;5.40;1.67;;;;;;;-1.09;80.49;100796.53;5010919;28;20046;-76
2022/01/07 05:17:40;;;;;;;6.40;1.57;;;;;;;-1.04;80.02;100795.06;5010454;28;20021;-77
2022/01/07 05:20:06;;;;;;;7.07;1.83;;;;;;;-1.00;80.44;100783.09;5010359;28;20044;-76
2022/01/07 05:22:31;;;;;;;4.53;1.20;;;;;;;-0.98;80.38;100789.25;5010510;28;20087;-77
2022/01/07 05:24:57;;;;;;;6.87;2.00;;;;;;;-0.93;79.91;100772.19;5010734;28;20033;-77
2022/01/07 05:27:22;;;;;;;4.93;1.50;;;;;;;-0.90;80.00;100778.41;5010216;28;20049;-76
2022/01/07 05:29:47;;;;;;;6.67;1.30;;;;;;;-0.84;80.36;100774.31;5011817;28;20073;-75
2022/01/07 05:32:13;;;;;;;6.87;2.00;;;;;;;-0.80;80.16;100769.31;5011519;28;20034;-76
2022/01/07 05:34:39;;;;;;;11.37;4.07;;;;;;;-0.77;79.71;100777.22;5011499;28;20038;-76
2022/01/07 05:37:04;;;;;;;7.83;2.73;;;;;;;-0.74;79.59;100772.16;5011708;28;20029;-76
2022/01/07 05:39:30;;;;;;;6.60;1.87;;;;;;;-0.74;79.23;100763.50;5011739;28;20396;-76
2022/01/07 05:41:55;;;;;;;5.87;1.90;;;;;;;-0.74;79.84;100754.03;5009263;28;20100;-76
2022/01/07 05:44:21;;;;;;;10.70;3.60;;;;;;;-0.74;79.81;100758.34;5010712;28;20115;-75
2022/01/07 05:46:47;;;;;;;7.37;2.50;;;;;;;-0.73;79.61;100755.81;5011557;28;20382;-76
2022/01/07 05:49:13;;;;;;;4.90;1.60;;;;;;;-0.76;79.62;100745.34;5015289;28;20103;-76
2022/01/07 05:51:38;;;;;;;4.57;1.50;;;;;;;-0.75;79.68;100753.97;5016603;28;20042;-76
2022/01/07 05:54:04;;;;;;;5.40;1.70;;;;;;;-0.76;79.67;100759.97;5010122;28;20042;-76
2022/01/07 05:56:31;;;;;;;5.90;1.70;;;;;;;-0.78;79.36;100757.31;5011649;28;20042;-77
2022/01/07 05:58:56;;;;;;;8.57;3.00;;;;;;;-0.79;79.30;100765.91;5011242;28;20044;-76
2022/01/07 06:01:21;;;;;;;12.57;5.33;;;;;;;-0.81;79.33;100752.03;5011236;28;20038;-77
2022/01/07 06:03:47;;;;;;;8.43;3.90;;;;;;;-0.83;79.37;100750.19;5011296;28;20136;-77
2022/01/07 06:06:12;;;;;;;6.80;2.43;;;;;;;-0.89;79.83;100746.50;5009020;28;20120;-76
2022/01/07 06:08:38;;;;;;;9.63;2.73;;;;;;;-0.92;79.44;100748.97;5009689;28;20121;-77
2022/01/07 06:11:04;;;;;;;19.13;7.53;;;;;;;-0.92;79.95;100754.16;5026021;28;20068;-77
2022/01/07 06:13:29;;;;;;;8.83;3.40;;;;;;;-0.90;79.77;100751.59;5011108;28;20114;-76
2022/01/07 06:15:55;;;;;;;11.97;2.77;;;;;;;-0.87;79.93;100751.72;5011028;28;20042;-75
2022/01/07 06:18:20;;;;;;;5.97;2.63;;;;;;;-0.84;79.35;100748.38;5011346;28;20049;-77
2022/01/07 06:20:45;;;;;;;5.90;2.17;;;;;;;-0.84;79.57;100735.44;5011231;28;20117;-76
2022/01/07 06:23:11;;;;;;;9.53;4.10;;;;;;;-0.77;79.74;100740.06;5010010;28;20038;-77
2022/01/07 06:25:36;;;;;;;15.43;5.43;;;;;;;-0.77;79.25;100732.28;5010977;28;20038;-77
2022/01/07 06:28:02;;;;;;;15.03;4.33;;;;;;;-0.73;79.64;100736.81;5011292;28;20041;-77
2022/01/07 06:30:27;;;;;;;6.53;2.50;;;;;;;-0.71;79.50;100737.72;5008256;28;20076;-76
2022/01/07 06:32:53;;;;;;;5.87;2.17;;;;;;;-0.62;79.75;100727.75;5011084;28;20124;-77
2022/01/07 06:35:19;;;;;;;6.50;2.30;;;;;;;-0.56;79.91;100735.78;5010576;28;20045;-76
2022/01/07 06:37:45;;;;;;;16.17;5.93;;;;;;;-0.45;79.63;100731.03;5010863;28;20124;-76
2022/01/07 06:40:10;;;;;;;12.43;6.07;;;;;;;-0.36;79.47;100721.06;5010909;28;20128;-76
2022/01/07 06:42:36;;;;;;;8.57;2.93;;;;;;;-0.31;79.24;100718.66;5018009;28;20038;-77
2022/01/07 06:45:04;;;;;;;7.03;2.77;;;;;;;-0.33;79.11;100722.91;5006991;28;20168;-77
2022/01/07 06:47:29;;;;;;;5.47;2.10;;;;;;;-0.33;79.24;100721.19;5010321;28;20108;-77
2022/01/07 06:49:55;;;;;;;7.83;2.33;;;;;;;-0.35;79.25;100727.13;5010352;28;20145;-77
2022/01/07 06:52:20;;;;;;;7.53;2.57;;;;;;;-0.36;79.65;100720.19;5009264;28;20030;-77
2022/01/07 06:54:45;;;;;;;17.40;5.30;;;;;;;-0.34;79.39;100728.88;5010398;28;20401;-76
2022/01/07 06:57:11;;;;;;;7.20;2.53;;;;;;;-0.31;79.14;100727.31;5010727;28;20381;-77
2022/01/07 06:59:36;;;;;;;6.30;2.80;;;;;;;-0.28;79.25;100726.56;5010679;28;20400;-76
2022/01/07 07:02:02;;;;;;;8.97;3.43;;;;;;;-0.26;79.39;100730.13;5010287;28;20030;-77
2022/01/07 07:04:28;;;;;;;15.13;5.23;;;;;;;-0.24;79.50;100725.84;5010049;28;20084;-77
2022/01/07 07:06:54;;;;;;;9.70;3.97;;;;;;;-0.22;79.57;100719.00;5012967;28;20049;-76
2022/01/07 07:09:20;;;;;;;8.30;2.90;;;;;;;-0.20;79.41;100719.09;5008778;28;20107;-76
2022/01/07 07:11:46;;;;;;;7.03;2.90;;;;;;;-0.19;78.94;100728.63;5012873;28;20121;-77
2022/01/07 07:14:12;;;;;;;21.97;9.50;;;;;;;-0.19;79.59;100726.91;5013385;28;20050;-76
2022/01/07 07:16:38;;;;;;;17.77;6.37;;;;;;;-0.19;78.98;100734.69;5013876;28;20034;-76
2022/01/07 07:19:04;;;;;;;8.73;3.53;;;;;;;-0.20;78.85;100722.56;5014178;28;20651;-77
2022/01/07 07:21:29;;;;;;;10.87;3.00;;;;;;;-0.28;78.67;100735.22;5014187;28;20072;-77
2022/01/07 07:23:55;;;;;;;8.37;3.40;;;;;;;-0.31;79.32;100734.22;5013928;28;20481;-76
2022/01/07 07:26:20;;;;;;;6.33;2.90;;;;;;;-0.34;79.25;100737.56;5013795;28;20076;-76
2022/01/07 07:28:47;;;;;;;12.80;3.20;;;;;;;-0.36;78.97;100730.56;5013988;28;20504;-77
2022/01/07 07:31:15;;;;;;;8.10;3.47;;;;;;;-0.33;79.57;100726.38;5013954;28;20045;-77
2022/01/07 07:34:06;;;;;;;10.10;3.53;;;;;;;-0.33;79.74;100735.88;5010307;28;20050;-77
2022/01/07 07:36:32;;;;;;;11.60;3.33;;;;;;;-0.26;79.26;100727.53;5009595;28;20041;-77
2022/01/07 07:39:04;;;;;;;17.03;7.13;;;;;;;-0.26;79.57;100727.53;5012198;28;20623;-75
2022/01/07 07:41:30;;;;;;;14.32;5.13;;;;;;;-0.29;79.86;100719.59;5010141;28;20044;-76
2022/01/07 07:43:57;;;;;;;13.07;4.10;;;;;;;-0.31;79.49;100721.25;5010991;28;20459;-77
2022/01/07 07:46:24;;;;;;;8.13;3.40;;;;;;;-0.35;79.89;100724.53;5013197;28;20087;-76
2022/01/07 07:48:51;;;;;;;12.63;3.90;;;;;;;-0.31;79.82;100718.66;5013198;28;20033;-76
2022/01/07 07:51:17;;;;;;;12.80;3.30;;;;;;;-0.26;80.02;100718.03;5028512;28;20112;-77
2022/01/07 07:53:43;;;;;;;8.20;3.27;;;;;;;-0.27;79.54;100720.53;5012950;28;20037;-77
2022/01/07 07:56:11;;;;;;;13.80;5.20;;;;;;;-0.29;80.21;100722.19;5012921;28;20038;-77
2022/01/07 07:58:37;;;;;;;9.00;3.87;;;;;;;-0.29;80.26;100715.31;5011875;28;20037;-77
2022/01/07 08:01:02;;;;;;;12.00;4.43;;;;;;;-0.21;79.89;100715.59;5011300;28;20052;-76
2022/01/07 08:03:28;;;;;;;9.40;3.83;;;;;;;-0.14;80.15;100711.53;5011240;28;20123;-75
2022/01/07 08:05:54;;;;;;;8.17;3.43;;;;;;;-0.10;79.77;100709.13;5010494;28;20039;-77
2022/01/07 08:08:19;;;;;;;11.07;4.20;;;;;;;0.00;79.31;100705.22;5011917;28;20492;-77
2022/01/07 08:10:48;;;;;;;8.60;3.03;;;;;;;0.04;79.46;100703.59;5013188;28;20025;-75
2022/01/07 08:15:58;;;;;;;8.33;3.30;;;;;;;0.17;78.95;100695.47;5011488;28;20037;-76
2022/01/07 08:18:29;;;;;;;10.30;3.83;;;;;;;0.24;79.26;100697.47;5011302;28;20033;-76
2022/01/07 08:21:15;;;;;;;11.80;3.67;;;;;;;0.34;79.01;100691.81;5011821;28;20038;-77
2022/01/07 08:23:42;;;;;;;9.90;4.00;;;;;;;0.44;78.43;100693.00;5010013;28;20504;-77
2022/01/07 08:26:10;;;;;;;12.17;4.17;;;;;;;0.52;78.59;100682.91;5011416;28;20400;-76
2022/01/07 08:28:44;;;;;;;28.13;13.37;;;;;;;0.63;78.75;100684.22;5012729;28;20073;-76
2022/01/07 08:36:21;;;;;;;26.33;12.27;;;;;;;0.90;78.52;100680.81;5011261;28;20045;-77
2022/01/07 08:38:49;;;;;;;22.57;12.17;;;;;;;0.99;78.18;100675.94;5011872;28;20037;-77
2022/01/07 08:41:16;;;;;;;19.53;11.40;;;;;;;1.09;77.01;100670.22;5012764;28;20561;-76
2022/01/07 08:43:42;;;;;;;22.00;11.17;;;;;;;1.15;77.07;100675.63;5012321;28;20096;-77
2022/01/07 08:46:08;;;;;;;22.85;10.70;;;;;;;1.24;77.37;100672.47;5011608;28;20033;-76
2022/01/07 08:48:35;;;;;;;16.10;8.13;;;;;;;1.27;76.46;100662.16;5012352;28;20040;-77
2022/01/07 08:51:01;;;;;;;13.30;6.95;;;;;;;1.31;76.74;100662.34;5012487;28;20038;-77
2022/01/07 08:53:27;;;;;;;14.55;5.93;;;;;;;1.40;77.11;100664.34;5011125;28;20045;-77
2022/01/07 08:55:52;;;;;;;9.90;4.90;;;;;;;1.48;77.12;100654.19;5009543;28;20042;-77
2022/01/07 08:58:18;;;;;;;9.68;4.28;;;;;;;1.61;76.89;100661.56;5011346;28;20036;-76
2022/01/07 09:00:43;;;;;;;11.30;4.65;;;;;;;1.65;76.28;100657.31;5012143;28;20037;-77
2022/01/07 09:03:09;;;;;;;10.32;3.78;;;;;;;1.78;76.22;100654.25;5012030;28;20037;-77
2022/01/07 09:05:34;;;;;;;10.68;4.15;;;;;;;1.87;75.76;100648.50;5010806;28;20026;-76
2022/01/07 09:08:00;;;;;;;11.35;3.78;;;;;;;1.96;75.66;100640.94;5008805;28;20041;-76
2022/01/07 09:10:25;;;;;;;10.07;3.65;;;;;;;2.07;75.26;100636.97;5011502;28;20026;-77
2022/01/07 09:12:51;;;;;;;8.60;3.42;;;;;;;2.14;75.21;100633.69;5009954;28;20504;-77
2022/01/07 09:15:16;;;;;;;13.27;4.50;;;;;;;2.07;74.29;100639.56;5011730;28;20401;-77
2022/01/07 09:17:42;;;;;;;10.27;4.10;;;;;;;2.15;74.86;100626.78;5011559;28;20034;-76
2022/01/07 09:20:08;;;;;;;11.10;4.85;;;;;;;2.22;74.55;100623.50;5011491;28;20064;-76
2022/01/07 09:22:35;;;;;;;27.63;14.63;;;;;;;2.31;73.54;100631.59;5011473;28;20416;-76
2022/01/07 09:25:02;;;;;;;29.17;14.27;;;;;;;2.50;74.25;100625.16;5009819;28;20037;-77
2022/01/07 09:27:27;;;;;;;13.32;5.68;;;;;;;2.60;74.02;100618.50;5011102;28;20489;-77
2022/01/07 09:29:52;;;;;;;14.75;4.30;;;;;;;2.63;73.33;100619.44;5010505;28;20144;-76
2022/01/07 09:32:18;;;;;;;12.45;3.97;;;;;;;2.69;73.08;100607.44;5011255;28;20038;-77
2022/01/07 09:34:43;;;;;;;8.48;2.75;;;;;;;2.67;71.90;100614.31;5009775;28;20079;-77
2022/01/07 09:37:09;;;;;;;13.57;3.38;;;;;;;2.70;71.09;100609.19;5011125;28;20440;-77
2022/01/07 09:39:36;;;;;;;10.50;3.17;;;;;;;2.75;71.28;100608.50;5011271;28;20101;-76
2022/01/07 09:42:03;;;;;;;11.00;3.55;;;;;;;2.79;69.52;100604.22;5010960;28;20037;-77
2022/01/07 09:44:29;;;;;;;12.50;3.75;;;;;;;2.76;69.50;100607.63;5010922;28;20038;-77
2022/01/07 09:46:55;;;;;;;12.65;4.47;;;;;;;2.79;69.63;100606.84;5009595;28;20034;-76
2022/01/07 09:49:21;;;;;;;11.90;4.35;;;;;;;2.86;70.36;100593.13;5009639;28;20026;-77
2022/01/07 09:51:46;;;;;;;11.55;4.25;;;;;;;2.96;70.67;100587.31;5010779;28;20633;-77
2022/01/07 09:54:12;;;;;;;18.98;4.38;;;;;;;2.93;69.25;100587.22;5008047;28;20072;-77
2022/01/07 09:56:38;;;;;;;9.38;3.67;;;;;;;2.97;69.09;100583.84;5010221;28;20038;-77
2022/01/07 09:59:05;;;;;;;9.20;3.78;;;;;;;3.02;68.71;100582.25;5009441;28;20088;-76
2022/01/07 10:01:57;;;;;;;10.68;3.22;;;;;;;3.06;68.53;100584.06;5018417;28;20041;-77
2022/01/07 10:04:32;;;;;;;7.78;2.90;;;;;;;3.11;68.82;100575.50;5006577;28;20033;-76
2022/01/07 10:07:17;;;;;;;9.77;3.00;;;;;;;3.06;68.64;100578.84;5011311;28;20037;-76
2022/01/07 10:10:03;;;;;;;9.35;3.20;;;;;;;3.15;68.61;100567.78;5011532;28;20373;-77
2022/01/07 10:12:31;;;;;;;21.67;9.77;;;;;;;3.04;68.07;100570.13;5009250;28;20095;-77
2022/01/07 10:15:14;;;;;;;17.45;6.72;;;;;;;3.16;67.16;100564.31;5011221;28;20465;-77
2022/01/07 10:17:40;;;;;;;8.48;3.72;;;;;;;3.24;67.64;100556.69;5007445;28;20045;-76
2022/01/07 10:20:07;;;;;;;8.38;2.90;;;;;;;3.23;67.51;100549.72;5011496;28;20084;-77
2022/01/07 10:23:08;;;;;;;10.38;4.40;;;;;;;3.29;66.72;100547.25;5011597;28;20052;-77
2022/01/07 10:25:38;;;;;;;11.93;3.33;;;;;;;3.33;67.04;100541.28;4989191;28;20046;-77
2022/01/07 10:28:10;;;;;;;8.48;3.53;;;;;;;3.38;66.93;100546.56;5005223;28;20496;-76
2022/01/07 10:30:39;;;;;;;9.82;3.30;;;;;;;3.42;66.54;100543.19;5009409;28;20037;-76
2022/01/07 10:33:35;;;;;;;8.98;3.05;;;;;;;3.38;66.30;100544.88;5009585;28;20068;-77
2022/01/07 10:36:07;;;;;;;6.80;3.45;;;;;;;3.50;67.17;100539.91;5005372;28;20157;-76
2022/01/07 10:38:34;;;;;;;5.75;2.42;;;;;;;3.50;66.52;100539.03;5008758;28;20076;-77
2022/01/07 10:41:01;;;;;;;7.72;3.17;;;;;;;3.62;66.87;100534.09;5011977;28;20507;-76
2022/01/07 10:43:35;;;;;;;9.05;3.35;;;;;;;3.76;66.63;100526.56;5014597;28;20038;-76
2022/01/07 10:46:13;;;;;;;9.38;3.10;;;;;;;3.91;66.07;100534.72;5014773;28;20072;-76
2022/01/07 10:48:51;;;;;;;8.00;2.80;;;;;;;4.01;66.07;100527.06;5013543;28;20042;-77
2022/01/07 10:51:23;;;;;;;9.18;3.20;;;;;;;4.05;64.53;100523.66;5011282;28;20455;-77
2022/01/07 10:53:57;;;;;;;11.50;3.88;;;;;;;4.12;65.11;100521.22;5011549;28;20169;-76
2022/01/07 10:56:32;;;;;;;9.90;3.00;;;;;;;4.13;64.37;100517.75;5014776;28;20029;-76
2022/01/07 10:59:09;;;;;;;6.88;3.22;;;;;;;4.23;64.18;100512.72;5015092;28;20532;-78
2022/01/07 11:01:43;;;;;;;5.75;2.33;;;;;;;4.17;62.98;100508.25;5018552;28;20029;-77
2022/01/07 11:04:21;;;;;;;7.47;3.15;;;;;;;4.27;63.20;100507.56;5010006;28;20045;-76
2022/01/07 11:06:48;;;;;;;7.80;2.92;;;;;;;4.27;63.02;100504.97;5014396;28;20038;-77
2022/01/07 11:09:16;;;;;;;8.85;3.00;;;;;;;4.22;63.05;100509.22;5021916;28;20033;-77
2022/01/07 11:11:51;;;;;;;7.97;3.20;;;;;;;4.30;62.43;100505.03;5012975;28;20125;-76
2022/01/07 11:14:20;;;;;;;7.90;3.03;;;;;;;4.41;63.32;100504.34;5014055;28;20038;-76
2022/01/07 11:16:46;;;;;;;8.93;3.13;;;;;;;4.53;63.11;100507.16;5014052;28;20117;-76
2022/01/07 11:19:18;;;;;;;9.85;3.45;;;;;;;4.45;61.56;100498.28;5021349;28;20469;-76
2022/01/07 11:21:47;;;;;;;5.78;2.75;;;;;;;4.60;62.80;100498.56;5014106;28;20120;-76
2022/01/07 11:24:32;;;;;;;7.63;3.03;;;;;;;4.75;60.91;100493.63;5013416;28;20087;-76
2022/01/07 11:27:15;;;;;;;11.43;5.28;;;;;;;4.72;61.05;100493.56;5010974;28;20033;-76
2022/01/07 11:29:49;;;;;;;8.82;3.45;;;;;;;4.73;61.45;100492.69;5016716;28;20038;-77
2022/01/07 11:32:37;;;;;;;9.27;3.05;;;;;;;4.72;61.29;100490.97;5013650;28;20050;-76